Time;durP1;ratioP1;P1;durP2;ratioP2;P2;SDS_P1;SDS_P2;PMS_P1;PMS_P2;Temp;Humidity;BMP_temperature;BMP_pressure;BME280_temperature;BME280_humidity;BME280_pressure;Samples;Min_cycle;Max_cycle;Signal;HPM_P1;HPM_P2
2021/12/03 00:00:02;;;;;;;8.68;3.65;;;0.00;99.90;;;-0.95;100.00;96585.38;5011616;28;20108;-38
2021/12/03 00:02:28;;;;;;;4.10;3.13;;;0.00;99.90;;;-0.97;100.00;96590.56;5009462;28;20121;-39
2021/12/03 00:04:54;;;;;;;4.72;3.08;;;0.00;99.90;;;-1.05;100.00;96597.50;5008288;28;20042;-38
2021/12/03 00:07:19;;;;;;;5.80;3.67;;;-0.10;99.90;;;-1.08;100.00;96589.72;5008851;28;20567;-39
2021/12/03 00:09:45;;;;;;;8.38;4.05;;;-0.10;99.90;;;-0.98;100.00;96596.59;5009249;28;20032;-38
2021/12/03 00:12:11;;;;;;;6.63;3.88;;;-0.10;99.90;;;-1.21;100.00;96585.47;5009477;28;20061;-38
2021/12/03 00:14:37;;;;;;;7.78;3.80;;;-0.10;99.90;;;-1.15;100.00;96608.72;5008692;28;20748;-40
2021/12/03 00:17:03;;;;;;;7.35;3.70;;;-0.20;99.90;;;-1.13;100.00;96622.56;5012350;28;20044;-39
2021/12/03 00:19:29;;;;;;;6.20;3.70;;;-0.20;99.90;;;-1.23;100.00;96613.09;5009485;28;20027;-38
2021/12/03 00:21:55;;;;;;;7.20;4.35;;;-0.20;99.90;;;-1.28;100.00;96617.41;5009388;28;20041;-39
2021/12/03 00:24:20;;;;;;;13.25;4.80;;;-0.30;99.90;;;-1.23;100.00;96632.06;5011704;28;20037;-38
2021/12/03 00:26:46;;;;;;;5.80;4.07;;;-0.30;99.90;;;-1.31;100.00;96636.41;5011849;28;20045;-38
2021/12/03 00:29:12;;;;;;;8.65;4.13;;;-0.30;99.90;;;-1.32;100.00;96641.56;5011530;28;20523;-38
2021/12/03 00:31:38;;;;;;;8.65;4.43;;;-0.30;99.90;;;-1.33;100.00;96651.03;5004992;28;20506;-38
2021/12/03 00:34:04;;;;;;;7.78;4.07;;;-0.30;99.90;;;-1.35;100.00;96648.47;5010015;28;20034;-38
2021/12/03 00:36:30;;;;;;;10.98;4.80;;;-0.40;99.90;;;-1.38;100.00;96647.63;5007055;28;20049;-38
2021/12/03 00:38:59;;;;;;;11.35;4.85;;;-0.40;99.90;;;-1.35;100.00;96650.19;5005753;28;20029;-38
2021/12/03 00:41:30;;;;;;;12.40;4.68;;;-0.40;99.90;;;-1.38;100.00;96652.81;5000206;28;20030;-38
2021/12/03 00:43:56;;;;;;;7.68;4.63;;;-0.40;99.90;;;-1.39;100.00;96657.09;5008151;28;20114;-38
2021/12/03 00:46:23;;;;;;;8.95;4.90;;;-0.40;99.90;;;-1.38;100.00;96661.41;5014491;28;20463;-39
2021/12/03 00:48:52;;;;;;;9.82;4.75;;;-0.40;99.90;;;-1.38;100.00;96661.41;5012078;28;20526;-38
2021/12/03 00:51:21;;;;;;;13.98;6.03;;;-0.40;99.90;;;-1.41;100.00;96664.00;5009802;28;20102;-38
2021/12/03 00:53:48;;;;;;;8.70;5.10;;;-0.40;99.90;;;-1.43;100.00;96678.66;5009999;28;20033;-38
2021/12/03 00:56:15;;;;;;;7.20;4.75;;;-0.40;99.90;;;-1.39;100.00;96677.78;5000080;28;20043;-39
2021/12/03 00:58:41;;;;;;;10.70;5.75;;;-0.40;99.90;;;-1.42;100.00;96671.75;5005933;28;20033;-38
2021/12/03 01:01:08;;;;;;;9.27;5.25;;;-0.40;99.90;;;-1.45;100.00;96685.56;5012853;28;20032;-38
2021/12/03 01:03:35;;;;;;;9.35;4.82;;;-0.40;99.90;;;-1.44;100.00;96689.84;5012756;28;20527;-40
2021/12/03 01:06:01;;;;;;;8.32;4.57;;;-0.40;99.90;;;-1.44;100.00;96692.44;5009178;28;20033;-38
2021/12/03 01:08:26;;;;;;;9.43;4.80;;;-0.40;99.90;;;-1.33;100.00;96694.16;5013315;28;20032;-39
2021/12/03 01:10:52;;;;;;;11.88;5.28;;;-0.30;99.90;;;-1.33;100.00;96699.34;5010829;28;20445;-38
2021/12/03 01:13:18;;;;;;;8.80;4.90;;;-0.30;99.90;;;-1.32;100.00;96695.91;5011536;28;20048;-40
2021/12/03 01:15:44;;;;;;;8.02;4.65;;;-0.30;99.90;;;-1.21;100.00;96699.31;5012004;28;20256;-39
2021/12/03 01:18:14;;;;;;;7.72;5.03;;;-0.20;99.90;;;-1.21;100.00;96702.75;5005553;28;20273;-39
2021/12/03 01:20:44;;;;;;;7.55;5.03;;;-0.20;99.90;;;-1.16;100.00;96710.53;5009700;28;20032;-38
2021/12/03 01:23:12;;;;;;;10.70;5.63;;;-0.20;99.90;;;-1.21;100.00;96714.84;5007700;28;20057;-39
2021/12/03 01:25:38;;;;;;;9.80;5.68;;;-0.10;99.90;;;-1.14;100.00;96721.72;5010538;28;20037;-39
2021/12/03 01:28:04;;;;;;;11.30;5.20;;;-0.10;99.90;;;-1.23;100.00;96708.81;5011684;28;20025;-40
2021/12/03 01:30:31;;;;;;;12.73;5.90;;;-0.10;99.90;;;-1.14;100.00;96723.47;5010173;28;20037;-41
2021/12/03 01:33:00;;;;;;;12.82;5.68;;;-0.20;99.90;;;-1.18;100.00;96727.78;5010162;28;20478;-39
2021/12/03 01:35:27;;;;;;;8.93;5.25;;;-0.20;99.90;;;-1.20;100.00;96732.97;5010732;28;20120;-40
2021/12/03 01:37:53;;;;;;;9.75;5.38;;;-0.20;99.90;;;-1.20;100.00;96730.38;5006273;28;20029;-39
2021/12/03 01:40:24;;;;;;;9.98;5.60;;;-0.20;99.90;;;-1.31;100.00;96728.66;5010560;28;20392;-40
2021/12/03 01:42:50;;;;;;;9.23;5.10;;;-0.30;99.90;;;-1.29;100.00;96729.50;5008111;28;20037;-39
2021/12/03 01:45:23;;;;;;;14.68;5.57;;;-0.30;99.90;;;-1.32;100.00;96727.78;5009015;28;20049;-39
2021/12/03 01:47:50;;;;;;;11.80;6.13;;;-0.30;99.90;;;-1.34;100.00;96734.69;5009273;28;20372;-39
2021/12/03 01:50:28;;;;;;;11.32;5.65;;;-0.30;99.90;;;-1.41;100.00;96726.06;5011099;28;20029;-39
2021/12/03 01:52:54;;;;;;;10.82;5.72;;;-0.40;99.90;;;-1.36;100.00;96734.69;5009623;28;20096;-39
2021/12/03 01:55:19;;;;;;;9.68;5.75;;;-0.30;99.90;;;-1.48;100.00;96729.53;5010136;28;20041;-40
2021/12/03 01:57:45;;;;;;;9.48;5.75;;;-0.40;99.90;;;-1.47;100.00;96736.44;5011186;28;20025;-40
2021/12/03 02:00:22;;;;;;;10.63;5.57;;;-0.40;99.90;;;-1.66;100.00;96706.25;5010980;28;20154;-40
2021/12/03 02:02:48;;;;;;;13.50;5.45;;;-0.50;99.90;;;-1.57;100.00;96729.53;5008409;28;20071;-40
2021/12/03 02:05:14;;;;;;;7.85;5.18;;;-0.50;99.90;;;-1.55;100.00;96736.41;5011744;28;20026;-39
2021/12/03 02:07:40;;;;;;;9.73;5.55;;;-0.50;99.90;;;-1.57;100.00;96740.72;5013442;28;20029;-40
2021/12/03 02:10:08;;;;;;;10.75;5.75;;;-0.50;99.90;;;-1.61;100.00;96738.16;5012355;28;20096;-40
2021/12/03 02:12:34;;;;;;;9.15;5.22;;;-0.60;99.90;;;-1.68;100.00;96734.69;5010747;28;20036;-40
2021/12/03 02:14:59;;;;;;;9.70;5.95;;;-0.60;99.90;;;-1.80;100.00;96732.94;5003374;28;20030;-40
2021/12/03 02:17:25;;;;;;;8.73;5.63;;;-0.70;99.90;;;-1.82;100.00;96739.84;5008051;28;20434;-39
2021/12/03 02:19:51;;;;;;;9.10;5.63;;;-0.80;99.90;;;-1.83;100.00;96743.31;5009133;28;20352;-40
2021/12/03 02:22:17;;;;;;;9.43;5.65;;;-0.70;99.90;;;-1.87;100.00;96751.03;5010246;28;20029;-39
2021/12/03 02:24:43;;;;;;;7.65;5.38;;;-0.80;99.90;;;-1.95;100.00;96753.63;5007852;28;20498;-40
2021/12/03 02:27:08;;;;;;;9.07;5.53;;;-0.80;99.90;;;-1.96;100.00;96762.22;5008991;28;20030;-40
2021/12/03 02:29:34;;;;;;;11.20;5.57;;;-0.90;99.90;;;-1.95;100.00;96766.53;4998985;28;20037;-41
2021/12/03 02:32:00;;;;;;;11.98;6.13;;;-0.90;99.90;;;-1.98;100.00;96769.13;5002874;28;20431;-40
2021/12/03 02:34:26;;;;;;;10.13;5.57;;;-0.90;99.90;;;-1.89;100.00;96760.53;4999071;28;20475;-39
2021/12/03 02:36:51;;;;;;;10.48;6.40;;;-0.90;99.90;;;-2.00;100.00;96768.25;5006813;28;20041;-40
2021/12/03 02:39:17;;;;;;;10.90;5.28;;;-0.90;99.90;;;-2.06;100.00;96768.22;5009793;28;20120;-41
2021/12/03 02:41:43;;;;;;;10.15;5.30;;;-0.90;99.90;;;-2.04;100.00;96766.53;5004811;28;20065;-40
2021/12/03 02:44:09;;;;;;;10.50;6.07;;;-1.00;99.90;;;-2.00;100.00;96784.63;5005345;28;20136;-39
2021/12/03 02:46:34;;;;;;;10.35;6.00;;;-1.00;99.90;;;-2.06;100.00;96763.94;5006059;28;20061;-39
2021/12/03 02:49:00;;;;;;;10.38;5.75;;;-0.90;99.90;;;-2.05;100.00;96780.28;5009477;28;20084;-38
2021/12/03 02:51:26;;;;;;;9.90;5.82;;;-0.90;99.90;;;-2.09;100.00;96773.41;5008251;28;20036;-39
2021/12/03 02:53:52;;;;;;;10.13;5.57;;;-1.00;99.90;;;-2.09;100.00;96774.25;5021948;28;20486;-38
2021/12/03 02:56:18;;;;;;;8.38;5.32;;;-1.00;99.90;;;-2.09;100.00;96768.25;5002897;28;20038;-39
2021/12/03 02:58:44;;;;;;;10.10;6.07;;;-1.00;99.90;;;-2.12;100.00;96782.88;5007212;28;20026;-39
2021/12/03 03:01:10;;;;;;;11.85;5.97;;;-1.10;99.90;;;-2.15;100.00;96784.59;5011236;28;20038;-39
2021/12/03 03:03:37;;;;;;;9.80;5.75;;;-1.10;99.90;;;-2.14;100.00;96791.47;5004043;28;20092;-38
2021/12/03 03:06:05;;;;;;;11.00;6.18;;;-1.10;99.90;;;-2.13;100.00;96788.88;5006698;28;20068;-39
2021/12/03 03:08:31;;;;;;;9.32;5.65;;;-1.10;99.90;;;-2.16;100.00;96791.44;5009792;28;20562;-39
2021/12/03 03:10:58;;;;;;;9.63;5.60;;;-1.00;99.90;;;-2.09;100.00;96799.25;5008669;28;20038;-39
2021/12/03 03:13:24;;;;;;;13.55;5.60;;;-1.00;99.90;;;-2.07;100.00;96803.53;5004007;28;20100;-39
2021/12/03 03:15:53;;;;;;;14.63;6.15;;;-1.00;99.90;;;-2.01;100.00;96792.34;5007282;28;20040;-39
2021/12/03 03:18:26;;;;;;;9.98;5.72;;;-0.90;99.90;;;-1.87;100.00;96792.41;5010984;28;20065;-39
2021/12/03 03:20:56;;;;;;;12.75;5.85;;;-0.80;99.90;;;-1.85;100.00;96783.78;5003388;28;20471;-39
2021/12/03 03:23:22;;;;;;;9.50;5.53;;;-0.70;99.90;;;-1.76;100.00;96777.75;5003980;28;20383;-39
2021/12/03 03:25:50;;;;;;;8.40;5.45;;;-0.60;99.90;;;-1.58;100.00;96789.84;5007994;28;20419;-39
2021/12/03 03:28:17;;;;;;;9.02;6.20;;;-0.60;99.90;;;-1.44;100.00;96802.81;5023815;28;20446;-40
2021/12/03 03:30:45;;;;;;;10.05;6.10;;;-0.40;99.90;;;-1.39;100.00;96796.78;5006383;28;20072;-40
2021/12/03 03:33:12;;;;;;;10.00;5.70;;;-0.40;99.90;;;-1.34;100.00;96799.38;5007428;28;20488;-40
2021/12/03 03:35:38;;;;;;;10.02;5.88;;;-0.30;99.90;;;-1.32;100.00;96807.13;5010897;28;20049;-40
2021/12/03 03:38:05;;;;;;;12.65;6.55;;;-0.20;99.90;;;-1.28;100.00;96796.78;5010448;28;20034;-40
2021/12/03 03:40:31;;;;;;;13.60;6.38;;;-0.20;99.90;;;-1.25;100.00;96806.28;5009646;28;20041;-39
2021/12/03 03:42:59;;;;;;;10.43;6.10;;;-0.20;99.90;;;-1.19;100.00;96820.06;5002130;28;20033;-40
2021/12/03 03:45:26;;;;;;;10.60;6.07;;;-0.20;99.90;;;-1.18;100.00;96814.03;5010684;28;20061;-40
2021/12/03 03:47:52;;;;;;;12.38;6.30;;;-0.10;99.90;;;-1.09;100.00;96822.66;5010661;28;20439;-39
2021/12/03 03:50:19;;;;;;;8.85;5.43;;;-0.10;99.90;;;-1.10;100.00;96832.13;5007984;28;20052;-39
2021/12/03 03:52:48;;;;;;;8.75;5.63;;;0.00;99.90;;;-1.21;100.00;96802.81;5008140;28;20033;-38
2021/12/03 03:55:14;;;;;;;8.90;5.45;;;0.00;99.90;;;-1.07;100.00;96826.97;5006190;28;20551;-38
2021/12/03 03:57:41;;;;;;;11.20;5.75;;;0.00;99.90;;;-1.05;100.00;96824.38;5010149;28;20028;-38
2021/12/03 04:00:12;;;;;;;9.98;5.35;;;0.00;99.90;;;-1.01;100.00;96831.25;5008946;28;20483;-41
2021/12/03 04:02:39;;;;;;;10.07;5.13;;;0.00;99.90;;;-0.98;100.00;96821.78;5008447;28;20100;-40
2021/12/03 04:05:06;;;;;;;13.10;5.88;;;0.10;99.90;;;-0.99;100.00;96826.94;5006820;28;20052;-40
2021/12/03 04:07:32;;;;;;;8.20;5.90;;;0.10;99.90;;;-0.98;100.00;96833.88;5009125;28;20036;-42
2021/12/03 04:09:57;;;;;;;8.50;5.30;;;0.00;99.90;;;-0.99;100.00;96829.53;5009051;28;20041;-40
2021/12/03 04:12:24;;;;;;;7.18;4.85;;;0.00;99.90;;;-0.96;100.00;96845.94;5011476;28;20649;-40
2021/12/03 04:14:49;;;;;;;7.65;4.78;;;0.10;99.90;;;-1.08;100.00;96825.22;5005097;28;20149;-39
2021/12/03 04:17:15;;;;;;;7.95;4.63;;;0.10;99.90;;;-0.93;100.00;96851.97;5007797;28;20451;-40
2021/12/03 04:19:43;;;;;;;9.95;5.25;;;0.10;99.90;;;-0.81;100.00;96857.13;5013296;28;20568;-39
2021/12/03 04:22:14;;;;;;;7.50;4.55;;;0.10;99.90;;;-0.80;100.00;96851.97;5014705;28;20710;-40
2021/12/03 04:24:40;;;;;;;9.90;5.32;;;0.20;99.90;;;-0.85;100.00;96858.00;5011102;28;20510;-39
2021/12/03 04:27:06;;;;;;;7.13;5.13;;;0.20;99.90;;;-0.81;100.00;96862.31;5012434;28;20123;-42
2021/12/03 04:29:32;;;;;;;8.60;5.53;;;0.20;99.90;;;-0.83;100.00;96870.06;5013026;28;20084;-42
2021/12/03 04:31:57;;;;;;;10.57;6.30;;;0.20;99.90;;;-0.85;100.00;96865.78;5015216;28;20042;-40
2021/12/03 04:34:24;;;;;;;10.63;6.50;;;0.20;99.90;;;-0.89;100.00;96864.91;5010780;28;20025;-39
2021/12/03 04:36:50;;;;;;;10.40;6.07;;;0.20;99.90;;;-0.84;100.00;96867.53;5012571;28;20068;-40
2021/12/03 04:39:16;;;;;;;9.77;6.05;;;0.20;99.90;;;-0.82;100.00;96873.56;5013198;28;20053;-40
2021/12/03 04:41:42;;;;;;;8.35;5.60;;;0.20;99.90;;;-0.75;100.00;96874.38;5007673;28;20494;-41
2021/12/03 04:44:08;;;;;;;10.07;5.20;;;0.20;99.90;;;-0.75;100.00;96875.28;5014108;28;20029;-40
2021/12/03 04:46:33;;;;;;;8.90;5.88;;;0.20;99.90;;;-0.73;100.00;96876.13;5010343;28;20044;-40
2021/12/03 04:48:59;;;;;;;8.63;5.50;;;0.30;99.90;;;-0.67;100.00;96877.84;5001110;28;20030;-40
2021/12/03 04:51:25;;;;;;;8.30;5.30;;;0.30;99.90;;;-0.70;100.00;96880.44;5011164;28;20034;-39
2021/12/03 04:53:51;;;;;;;9.13;4.93;;;0.30;99.90;;;-0.75;100.00;96884.75;5009940;28;20279;-39
2021/12/03 04:56:16;;;;;;;8.27;5.50;;;0.30;99.90;;;-0.80;100.00;96888.22;5013722;28;20041;-39
2021/12/03 04:58:42;;;;;;;8.73;5.25;;;0.30;99.90;;;-0.82;100.00;96895.13;5013866;28;20041;-39
2021/12/03 05:01:09;;;;;;;9.02;5.32;;;0.20;99.90;;;-0.78;100.00;96901.16;5008506;28;20133;-40
2021/12/03 05:03:37;;;;;;;7.10;5.10;;;0.30;99.90;;;-0.78;100.00;96901.16;5011879;28;20136;-41
2021/12/03 05:06:03;;;;;;;6.30;4.50;;;0.20;99.90;;;-0.80;100.00;96905.47;5012207;28;20113;-41
2021/12/03 05:08:31;;;;;;;6.78;4.95;;;0.20;99.90;;;-0.78;100.00;96908.94;5010316;28;20116;-40
2021/12/03 05:10:58;;;;;;;7.30;5.28;;;0.20;99.90;;;-0.83;100.00;96895.97;5010027;28;20017;-40
2021/12/03 05:13:30;;;;;;;7.25;5.30;;;0.20;99.90;;;-0.77;100.00;96905.50;5010407;28;20034;-40
2021/12/03 05:15:57;;;;;;;8.23;5.65;;;0.20;99.90;;;-0.75;100.00;96902.88;5011109;28;20033;-39
2021/12/03 05:18:25;;;;;;;9.48;5.65;;;0.20;99.90;;;-0.75;100.00;96897.69;5003107;28;20052;-40
2021/12/03 05:20:53;;;;;;;10.23;5.93;;;0.20;99.90;;;-0.73;100.00;96899.44;5003375;28;20185;-42
2021/12/03 05:23:22;;;;;;;10.32;5.55;;;0.30;99.90;;;-0.69;100.00;96903.75;4998747;28;20029;-41
2021/12/03 05:25:49;;;;;;;11.30;6.15;;;0.20;99.90;;;-0.77;100.00;96906.34;5007832;28;20033;-41
2021/12/03 05:28:16;;;;;;;9.98;5.80;;;0.30;99.90;;;-0.78;100.00;96914.09;4995667;28;20037;-40
2021/12/03 05:30:43;;;;;;;8.63;5.68;;;0.20;99.90;;;-0.82;100.00;96907.22;5003571;28;20107;-39
2021/12/03 05:33:09;;;;;;;8.27;5.60;;;0.20;99.90;;;-0.80;100.00;96927.03;5001107;28;20040;-40
2021/12/03 05:35:36;;;;;;;8.30;5.75;;;0.20;99.90;;;-0.74;100.00;96933.94;5001997;28;20523;-39
2021/12/03 05:38:02;;;;;;;8.32;5.55;;;0.20;99.90;;;-0.76;100.00;96922.72;4998638;28;20033;-40
2021/12/03 05:40:28;;;;;;;8.82;6.07;;;0.20;99.90;;;-0.79;100.00;96938.25;4999322;28;20025;-42
2021/12/03 05:42:54;;;;;;;12.48;6.10;;;0.20;99.90;;;-0.81;100.00;96927.94;4999077;28;20064;-40
2021/12/03 05:45:28;;;;;;;9.52;6.63;;;0.20;99.90;;;-0.81;100.00;96929.63;4994167;28;20060;-40
2021/12/03 05:47:55;;;;;;;7.80;5.18;;;0.20;99.90;;;-0.85;100.00;96922.72;5004316;28;20034;-39
2021/12/03 05:50:21;;;;;;;10.73;6.53;;;0.20;99.90;;;-0.83;100.00;96947.75;5008240;28;20070;-40
2021/12/03 05:52:49;;;;;;;10.05;5.32;;;0.20;99.90;;;-0.82;100.00;96946.06;5007849;28;20037;-39
2021/12/03 05:55:17;;;;;;;9.40;5.05;;;0.20;99.90;;;-0.79;100.00;96946.03;5007819;28;20030;-39
2021/12/03 05:57:44;;;;;;;8.85;4.97;;;0.20;99.90;;;-0.80;100.00;96949.50;5007640;28;20064;-40
2021/12/03 06:00:20;;;;;;;7.57;5.05;;;0.20;99.90;;;-0.98;100.00;96921.88;5008605;28;20034;-40
2021/12/03 06:02:46;;;;;;;8.07;5.18;;;0.20;99.90;;;-0.79;100.00;96961.56;5011013;28;20072;-40
2021/12/03 06:05:12;;;;;;;7.50;5.03;;;0.20;99.90;;;-0.74;100.00;96951.22;5005482;28;20443;-40
2021/12/03 06:07:38;;;;;;;9.70;5.15;;;0.30;99.90;;;-0.73;100.00;96965.91;5010699;28;20065;-42
2021/12/03 06:10:04;;;;;;;8.15;5.07;;;0.30;99.90;;;-0.67;100.00;96968.50;5009934;28;20426;-40
2021/12/03 06:12:31;;;;;;;7.65;5.38;;;0.30;99.90;;;-0.71;100.00;96966.75;5010100;28;20033;-39
2021/12/03 06:14:57;;;;;;;8.63;5.57;;;0.30;99.90;;;-0.65;100.00;96975.38;5006606;28;20086;-39
2021/12/03 06:17:23;;;;;;;7.93;5.68;;;0.30;99.90;;;-0.74;100.00;96961.56;5007805;28;20116;-40
2021/12/03 06:19:49;;;;;;;6.22;4.70;;;0.30;99.90;;;-0.65;100.00;96972.78;5009479;28;20076;-40
2021/12/03 06:22:15;;;;;;;8.40;5.43;;;0.30;99.90;;;-0.79;100.00;96969.31;5006688;28;20037;-40
2021/12/03 06:24:41;;;;;;;7.57;5.28;;;0.30;99.90;;;-0.68;100.00;96974.50;5010135;28;20033;-39
2021/12/03 06:27:07;;;;;;;6.38;4.20;;;0.30;99.90;;;-0.75;100.00;96978.84;5008610;28;20026;-40
2021/12/03 06:29:33;;;;;;;7.88;5.25;;;0.30;99.90;;;-0.81;100.00;96982.31;5007305;28;20487;-41
2021/12/03 06:31:59;;;;;;;7.35;5.40;;;0.20;99.90;;;-0.93;100.00;96991.75;5008286;28;20112;-41
2021/12/03 06:34:24;;;;;;;10.20;5.07;;;0.00;99.90;;;-1.08;100.00;96990.84;5007239;28;20068;-40
2021/12/03 06:36:50;;;;;;;6.82;5.25;;;0.00;99.90;;;-1.14;100.00;96996.03;5006348;28;20080;-38
2021/12/03 06:39:16;;;;;;;9.55;5.43;;;-0.10;99.90;;;-1.24;100.00;96986.50;5007393;28;20117;-38
2021/12/03 06:41:42;;;;;;;8.00;5.18;;;-0.10;99.90;;;-1.23;100.00;96988.25;5004049;28;20056;-38
2021/12/03 06:44:08;;;;;;;9.60;5.20;;;-0.20;99.90;;;-1.37;100.00;96986.47;5003073;28;20036;-40
2021/12/03 06:46:35;;;;;;;6.40;4.82;;;-0.30;99.90;;;-1.42;100.00;96997.66;5003022;28;20025;-42
2021/12/03 06:49:02;;;;;;;7.13;5.07;;;-0.40;99.90;;;-1.50;100.00;96995.03;4993232;28;20742;-41
2021/12/03 06:51:30;;;;;;;7.90;5.15;;;-0.50;99.90;;;-1.56;100.00;97000.22;5005019;28;20025;-40
2021/12/03 06:54:02;;;;;;;8.38;4.95;;;-0.60;99.90;;;-1.63;100.00;97006.22;5010422;28;20064;-39
2021/12/03 06:56:44;;;;;;;10.50;5.57;;;-0.70;99.90;;;-1.68;100.00;97007.91;5006315;28;20244;-39
2021/12/03 06:59:11;;;;;;;7.15;5.10;;;-0.70;99.90;;;-1.74;100.00;97008.75;5008438;28;20385;-39
2021/12/03 07:01:37;;;;;;;7.63;5.50;;;-0.80;99.90;;;-1.86;100.00;97006.94;5008581;28;20037;-39
2021/12/03 07:04:03;;;;;;;10.30;5.45;;;-0.80;99.90;;;-2.10;100.00;96981.81;5058248;22;20233;-93
2021/12/03 07:06:28;;;;;;;10.90;5.90;;;-0.90;99.90;;;-2.01;100.00;97012.00;5033314;28;20270;-92
2021/12/03 07:08:54;;;;;;;10.18;6.32;;;-0.90;99.90;;;-2.51;100.00;96960.03;5036148;28;20036;-92
2021/12/03 07:11:20;;;;;;;10.02;5.93;;;-1.00;99.90;;;-2.03;100.00;97021.47;5030517;28;20412;-92
2021/12/03 07:13:46;;;;;;;9.32;5.68;;;-1.00;99.90;;;-2.03;100.00;97034.41;5028171;28;20081;-92
2021/12/03 07:16:11;;;;;;;11.52;5.28;;;-1.00;99.90;;;-2.03;100.00;97039.56;5031837;28;20099;-91
2021/12/03 07:18:38;;;;;;;7.53;5.18;;;-1.10;99.90;;;-2.06;100.00;97039.53;5029279;28;20055;-91
2021/12/03 07:21:04;;;;;;;10.15;5.85;;;-1.10;99.90;;;-2.15;100.00;97036.03;5016113;28;20139;-90
2021/12/03 07:23:29;;;;;;;9.32;5.07;;;-1.20;99.90;;;-2.16;100.00;97049.81;5029680;28;20315;-91
2021/12/03 07:25:57;;;;;;;7.47;5.05;;;-1.10;99.90;;;-2.14;100.00;97042.06;5038653;28;20029;-91
2021/12/03 07:28:27;;;;;;;7.43;4.93;;;-1.20;99.90;;;-2.27;100.00;97022.19;5031381;28;20021;-90
2021/12/03 07:30:53;;;;;;;7.43;4.93;;;-1.30;99.90;;;-2.89;100.00;96937.34;5033249;28;20047;-91
2021/12/03 07:33:19;;;;;;;7.50;5.32;;;-1.20;99.90;;;-2.79;100.00;96950.34;5017552;28;20399;-90
2021/12/03 07:35:46;;;;;;;8.75;4.45;;;-1.20;99.90;;;-2.27;100.00;97040.25;5012165;28;20038;-90
2021/12/03 07:38:17;;;;;;;6.60;4.75;;;-1.20;99.90;;;-2.22;100.00;97054.94;5026640;28;20057;-90
2021/12/03 07:40:46;;;;;;;7.25;4.63;;;-1.20;99.90;;;-2.19;100.00;97059.25;5036052;28;20029;-91
2021/12/03 07:43:12;;;;;;;8.63;4.55;;;-1.20;99.90;;;-2.13;100.00;97055.00;5019228;28;20571;-90
2021/12/03 07:45:38;;;;;;;7.43;5.00;;;-1.20;99.90;;;-2.03;100.00;97055.06;5007610;28;20025;-91
2021/12/03 07:48:05;;;;;;;7.35;5.05;;;-1.10;99.90;;;-2.26;100.00;97021.31;5028646;28;20025;-91
2021/12/03 07:50:35;;;;;;;4.88;4.13;;;-1.00;99.90;;;-2.27;100.00;97017.88;5030329;28;20558;-90
2021/12/03 07:53:02;;;;;;;8.00;4.30;;;-1.00;99.90;;;-2.05;100.00;97055.06;5024988;28;20074;-90
2021/12/03 07:55:28;;;;;;;7.75;4.63;;;-1.00;99.90;;;-1.92;100.00;97072.38;5007864;28;20059;-91
2021/12/03 07:57:55;;;;;;;5.47;4.28;;;-1.00;99.90;;;-1.79;100.00;97075.06;5024473;28;20040;-90
2021/12/03 08:00:21;;;;;;;7.20;4.60;;;-0.80;99.90;;;-1.87;100.00;97036.22;5022899;28;20596;-90
2021/12/03 08:02:47;;;;;;;7.28;4.97;;;-0.70;99.90;;;-1.49;100.00;97076.06;5022566;28;20123;-91
2021/12/03 08:05:13;;;;;;;6.78;4.40;;;-0.50;99.90;;;-1.55;100.00;97031.22;5013553;28;20507;-91
2021/12/03 08:07:39;;;;;;;7.68;4.85;;;-0.40;99.90;;;-1.14;100.00;97083.16;5010121;28;20150;-91
2021/12/03 08:10:07;;;;;;;5.93;4.57;;;-0.20;99.90;;;-1.21;100.00;97056.38;5005967;28;20071;-90
2021/12/03 08:12:32;;;;;;;7.10;4.75;;;-0.10;99.90;;;-1.03;100.00;97079.72;5007125;28;20160;-91
2021/12/03 08:14:58;;;;;;;12.63;4.47;;;0.00;99.90;;;-0.98;100.00;97080.63;5001589;28;20040;-90
2021/12/03 08:17:27;;;;;;;7.13;4.50;;;0.00;99.90;;;-1.06;100.00;97079.75;5007168;28;20042;-92
2021/12/03 08:19:52;;;;;;;5.38;3.88;;;0.00;99.90;;;-2.01;100.00;96926.72;5005169;28;20087;-90
2021/12/03 08:22:20;;;;;;;7.15;3.88;;;-0.10;99.90;;;-1.12;100.00;97073.69;5007838;28;20036;-90
2021/12/03 08:24:46;;;;;;;7.30;4.32;;;-0.10;99.90;;;-1.48;100.00;97028.69;5010867;28;20064;-90
2021/12/03 08:27:11;;;;;;;6.43;3.95;;;-0.20;99.90;;;-1.25;100.00;97083.13;5018918;28;20140;-90
2021/12/03 08:29:37;;;;;;;5.45;3.83;;;-0.30;99.90;;;-1.25;100.00;97077.94;5007470;28;20528;-91
2021/12/03 08:32:06;;;;;;;5.80;3.85;;;-0.30;99.90;;;-1.24;100.00;97072.78;5026063;28;20029;-91
2021/12/03 08:34:32;;;;;;;6.80;4.50;;;-0.30;99.90;;;-1.21;100.00;97077.09;5025314;28;20186;-92
2021/12/03 08:36:58;;;;;;;6.28;4.07;;;-0.30;99.90;;;-1.37;100.00;97051.13;5008264;28;20124;-92
2021/12/03 08:39:23;;;;;;;7.50;4.63;;;-0.30;99.90;;;-1.25;100.00;97070.19;5024606;28;20120;-92
2021/12/03 08:41:49;;;;;;;7.75;4.00;;;-0.30;99.90;;;-1.26;100.00;97074.47;5025918;28;20036;-93
2021/12/03 08:44:15;;;;;;;7.40;3.70;;;-0.30;99.90;;;-1.22;100.00;97067.59;5012675;28;20115;-91
2021/12/03 08:47:08;;;;;;;5.32;3.80;;;-0.30;99.90;;;-1.26;100.00;97066.69;5019321;28;20052;-91
2021/12/03 08:49:55;;;;;;;6.15;4.03;;;-0.30;99.90;;;-1.79;100.00;96974.25;5024069;28;20041;-91
2021/12/03 08:52:31;;;;;;;7.32;3.38;;;-0.30;99.90;;;-2.23;100.00;96905.09;5020546;28;20526;-91
2021/12/03 08:54:57;;;;;;;5.07;3.88;;;-0.30;99.90;;;-1.32;100.00;97058.06;5037413;28;20037;-92
2021/12/03 08:57:27;;;;;;;5.38;3.42;;;-0.30;99.90;;;-1.58;100.00;97014.81;5024526;28;20048;-91
2021/12/03 08:59:56;;;;;;;6.22;3.70;;;-0.20;99.90;;;-1.85;100.00;96975.03;5006712;28;20042;-89
2021/12/03 09:02:23;;;;;;;8.98;3.70;;;-0.20;99.90;;;-2.29;100.00;96893.00;5004290;28;20040;-92
2021/12/03 09:04:49;;;;;;;6.05;4.00;;;-0.20;99.90;;;-2.22;100.00;96905.09;5008055;28;20033;-90
2021/12/03 09:07:18;;;;;;;6.22;3.58;;;-0.10;99.90;;;-1.55;100.00;97032.94;5023799;28;20029;-91
2021/12/03 09:09:45;;;;;;;4.60;3.00;;;-0.10;99.90;;;-1.73;100.00;96971.66;5029292;28;20037;-91
2021/12/03 09:12:11;;;;;;;5.60;3.22;;;-0.10;99.90;;;-0.97;100.00;97094.41;5025198;28;20071;-91
2021/12/03 09:14:41;;;;;;;5.97;2.85;;;0.00;99.90;;;-1.59;100.00;96989.84;5010157;28;20048;-89
2021/12/03 09:19:39;;;;;;;4.18;2.40;;;0.10;99.90;;;-1.23;100.00;97027.06;5031666;28;20490;-88
2021/12/03 09:22:06;;;;;;;4.05;2.50;;;0.20;99.90;;;-0.88;100.00;97091.00;5029968;28;20056;-90
2021/12/03 09:24:35;;;;;;;4.30;2.53;;;0.20;99.90;;;-0.78;100.00;97088.44;5015113;28;20021;-90
2021/12/03 09:27:02;;;;;;;5.30;2.72;;;0.20;99.90;;;-0.71;100.00;97085.88;5032425;28;20029;-90
2021/12/03 09:29:33;;;;;;;3.63;2.40;;;0.30;99.90;;;-0.77;100.00;97076.38;5015689;28;20509;-90
2021/12/03 09:31:59;;;;;;;3.42;2.17;;;0.30;99.90;;;-0.74;100.00;97081.56;5015142;28;20539;-90
2021/12/03 09:34:31;;;;;;;4.57;2.42;;;0.30;99.90;;;-0.63;100.00;97084.16;5017594;28;20039;-90
2021/12/03 09:36:57;;;;;;;3.10;2.03;;;0.40;99.90;;;-0.54;100.00;97089.34;5016301;28;20090;-89
2021/12/03 09:39:24;;;;;;;5.72;2.03;;;0.40;99.90;;;-0.54;100.00;97085.91;5023458;28;20100;-90
2021/12/03 09:41:52;;;;;;;2.95;1.83;;;0.50;99.90;;;-0.52;100.00;97089.38;5043233;28;20285;-89
2021/12/03 09:44:20;;;;;;;2.47;1.80;;;0.50;99.90;;;-0.89;100.00;97016.81;5034032;28;20025;-90
2021/12/03 09:46:46;;;;;;;2.95;1.77;;;0.50;99.90;;;-0.99;100.00;96992.59;5018414;28;20025;-90
2021/12/03 09:50:00;;;;;;;4.78;2.05;;;0.50;99.90;;;-0.45;100.00;97075.56;5039089;28;20601;-89
2021/12/03 09:54:50;;;;;;;4.97;2.58;;;0.50;99.90;;;-0.60;100.00;97047.91;5032134;28;20608;-90
2021/12/03 09:57:31;;;;;;;3.60;2.05;;;0.60;99.90;;;-0.40;100.00;97063.47;5027949;28;20469;-89
2021/12/03 10:18:52;;;;;;;4.43;2.53;;;1.00;99.90;;;-0.07;100.00;97049.69;5027440;28;20037;-89
2021/12/03 10:24:52;;;;;;;4.22;2.40;;;1.00;99.90;;;-0.48;100.00;96984.91;5028773;28;20102;-89
2021/12/03 10:30:27;;;;;;;5.43;2.95;;;1.00;99.90;;;0.08;100.00;97053.97;5028242;28;20132;-89
2021/12/03 10:41:18;;;;;;;6.47;2.55;;;1.10;99.90;;;0.21;100.00;97035.81;5036196;28;20416;-89
2021/12/03 10:52:05;;;;;;;4.68;2.17;;;1.40;99.90;;;0.19;99.47;97028.88;5023109;28;20128;-90
2021/12/03 11:48:09;;;;;;;3.33;2.10;;;2.90;99.90;;;1.91;93.36;96967.31;5034976;28;20033;-89
2021/12/03 14:36:30;;;;;;;4.30;1.30;;;2.40;99.90;;;1.33;88.84;96854.34;5053807;28;20173;-92
2021/12/03 14:55:43;;;;;;;4.68;1.70;;;2.00;99.90;;;0.90;93.93;96820.97;5027154;28;20083;-90